createdAt,value
2022-12-20T00:00:44.515Z,1.93
2022-12-20T00:03:10.986Z,1.95
2022-12-20T00:05:37.408Z,1.96
2022-12-20T00:08:03.754Z,1.95
2022-12-20T00:10:30.098Z,1.95
2022-12-20T00:12:56.506Z,1.93
2022-12-20T00:15:22.850Z,1.93
2022-12-20T00:17:49.268Z,1.93
2022-12-20T00:20:15.726Z,1.92
2022-12-20T00:22:42.089Z,1.93
2022-12-20T00:25:08.443Z,1.95
2022-12-20T00:27:34.852Z,1.95
2022-12-20T00:30:01.186Z,1.96
2022-12-20T00:32:27.538Z,1.95
2022-12-20T00:34:53.944Z,1.96
2022-12-20T00:37:20.317Z,1.93
2022-12-20T00:39:46.658Z,1.92
2022-12-20T00:42:12.999Z,1.95
2022-12-20T00:44:39.364Z,1.93
2022-12-20T00:47:05.775Z,1.96
2022-12-20T00:49:32.146Z,1.95
2022-12-20T00:51:58.471Z,1.95
2022-12-20T00:54:24.818Z,1.96
2022-12-20T00:56:51.172Z,1.96
2022-12-20T00:59:17.532Z,1.98
2022-12-20T01:01:44.073Z,1.96
2022-12-20T01:04:10.769Z,1.98
2022-12-20T01:06:37.292Z,1.93
2022-12-20T01:09:03.627Z,1.95
2022-12-20T01:11:30.176Z,1.98
2022-12-20T01:13:56.543Z,1.96
2022-12-20T01:16:22.956Z,1.96
2022-12-20T01:18:49.373Z,1.98
2022-12-20T01:21:15.769Z,1.96
2022-12-20T01:23:42.107Z,1.96
2022-12-20T01:26:08.456Z,1.96
2022-12-20T01:28:34.827Z,1.95
2022-12-20T01:31:01.194Z,1.95
2022-12-20T01:33:27.543Z,1.95
2022-12-20T01:35:53.896Z,1.95
2022-12-20T01:38:20.231Z,1.93
2022-12-20T01:40:46.585Z,1.96
2022-12-20T01:43:12.943Z,1.96
2022-12-20T01:45:39.326Z,1.96
2022-12-20T01:48:05.702Z,1.96
2022-12-20T01:50:32.047Z,1.96
2022-12-20T01:52:58.379Z,1.96
2022-12-20T01:55:24.721Z,1.98
2022-12-20T01:57:51.087Z,1.96
2022-12-20T02:00:17.440Z,1.99
2022-12-20T02:02:44.099Z,1.99
2022-12-20T02:05:10.565Z,1.95
2022-12-20T02:07:36.913Z,1.96
2022-12-20T02:10:03.257Z,1.96
2022-12-20T02:12:29.612Z,1.96
2022-12-20T02:14:55.951Z,1.95
2022-12-20T02:17:22.520Z,1.95
2022-12-20T02:19:48.888Z,1.98
2022-12-20T02:22:15.466Z,1.96
2022-12-20T02:24:41.837Z,1.96
2022-12-20T02:27:08.194Z,1.99
2022-12-20T02:29:34.549Z,1.99
2022-12-20T02:32:01.168Z,1.98
2022-12-20T02:34:27.681Z,2.00
2022-12-20T02:36:54.051Z,1.96
2022-12-20T02:39:20.417Z,1.98
2022-12-20T02:41:46.758Z,1.96
2022-12-20T02:44:13.110Z,1.96
2022-12-20T02:46:39.462Z,1.96
2022-12-20T02:49:05.801Z,1.96
2022-12-20T02:51:32.164Z,1.98
2022-12-20T02:53:58.519Z,1.96
2022-12-20T02:56:24.868Z,1.98
2022-12-20T02:58:51.207Z,1.95
2022-12-20T03:01:17.581Z,1.99
2022-12-20T03:03:44.039Z,1.99
2022-12-20T03:06:10.425Z,1.98
2022-12-20T03:08:36.776Z,1.99
2022-12-20T03:11:03.108Z,1.99
2022-12-20T03:13:30.295Z,1.99
2022-12-20T03:15:56.636Z,1.98
2022-12-20T03:18:22.971Z,1.98
2022-12-20T03:20:49.324Z,1.98
2022-12-20T03:23:15.642Z,1.99
2022-12-20T03:25:41.967Z,1.99
2022-12-20T03:28:08.331Z,1.99
2022-12-20T03:30:34.713Z,2.00
2022-12-20T03:33:01.085Z,1.96
2022-12-20T03:35:27.437Z,1.96
2022-12-20T03:37:53.795Z,1.98
2022-12-20T03:40:20.114Z,1.99
2022-12-20T03:42:46.445Z,1.99
2022-12-20T03:45:12.968Z,2.00
2022-12-20T03:47:39.313Z,1.99
2022-12-20T03:50:05.632Z,2.00
2022-12-20T03:52:31.960Z,2.00
2022-12-20T03:54:58.274Z,1.99
2022-12-20T03:57:24.634Z,2.00
2022-12-20T03:59:50.982Z,2.00
2022-12-20T04:02:17.422Z,1.98
2022-12-20T04:04:43.880Z,1.99
2022-12-20T04:07:10.219Z,2.02
2022-12-20T04:09:36.564Z,1.99
2022-12-20T04:12:02.909Z,2.00
2022-12-20T04:14:29.260Z,1.99
2022-12-20T04:16:55.599Z,1.99
2022-12-20T04:19:21.917Z,2.02
2022-12-20T04:21:48.255Z,1.99
2022-12-20T04:24:14.616Z,1.99
2022-12-20T04:26:40.953Z,1.99
2022-12-20T04:29:07.280Z,2.00
2022-12-20T04:31:33.650Z,2.02
2022-12-20T04:34:00.060Z,2.00
2022-12-20T04:36:26.406Z,1.99
2022-12-20T04:38:52.740Z,2.02
2022-12-20T04:41:19.096Z,1.99
2022-12-20T04:43:45.433Z,2.02
2022-12-20T04:46:11.807Z,1.99
2022-12-20T04:48:56.108Z,2.00
2022-12-20T04:51:24.448Z,2.00
2022-12-20T04:53:50.787Z,2.02
2022-12-20T04:56:17.108Z,2.00
2022-12-20T04:58:43.691Z,1.99
2022-12-20T05:01:10.232Z,2.03
2022-12-20T05:03:36.597Z,2.00
2022-12-20T05:06:03.209Z,2.02
2022-12-20T05:08:29.769Z,2.03
2022-12-20T05:10:56.106Z,2.02
2022-12-20T05:13:22.429Z,2.00
2022-12-20T05:15:49.003Z,2.02
2022-12-20T05:18:15.393Z,2.02
2022-12-20T05:20:41.958Z,2.00
2022-12-20T05:23:08.286Z,2.03
2022-12-20T05:25:34.599Z,2.02
2022-12-20T05:28:00.946Z,2.02
2022-12-20T05:30:27.274Z,2.02
2022-12-20T05:32:53.597Z,2.00
2022-12-20T05:35:19.923Z,2.02
2022-12-20T05:37:47.175Z,2.00
2022-12-20T05:40:13.515Z,2.03
2022-12-20T05:42:39.848Z,2.02
2022-12-20T05:45:06.177Z,2.03
2022-12-20T05:47:32.527Z,2.03
2022-12-20T05:49:58.869Z,2.03
2022-12-20T05:52:25.206Z,2.02
2022-12-20T05:54:51.749Z,2.02
2022-12-20T05:57:18.099Z,2.03
2022-12-20T05:59:44.437Z,2.03
2022-12-20T06:02:10.843Z,2.02
2022-12-20T06:04:37.325Z,1.99
2022-12-20T06:07:03.858Z,2.02
2022-12-20T06:09:30.191Z,2.02
2022-12-20T06:11:56.529Z,2.03
2022-12-20T06:14:22.861Z,2.03
2022-12-20T06:16:49.256Z,2.02
2022-12-20T06:19:21.146Z,2.03
2022-12-20T06:21:48.290Z,1.98
2022-12-20T06:24:14.643Z,2.03
2022-12-20T06:26:40.994Z,2.02
2022-12-20T06:29:07.325Z,2.02
2022-12-20T06:31:33.911Z,2.03
2022-12-20T06:34:00.277Z,2.03
2022-12-20T06:36:26.831Z,2.05
2022-12-20T06:38:53.180Z,2.05
2022-12-20T06:41:19.547Z,2.06
2022-12-20T06:43:46.107Z,2.03
2022-12-20T06:46:12.714Z,2.03
2022-12-20T06:48:39.306Z,2.05
2022-12-20T06:51:05.665Z,2.07
2022-12-20T06:53:31.984Z,2.03
2022-12-20T06:55:58.326Z,2.03
2022-12-20T06:58:24.891Z,2.06
2022-12-20T07:00:51.276Z,2.03
2022-12-20T07:03:17.735Z,2.03
2022-12-20T07:05:44.243Z,2.06
2022-12-20T07:08:10.804Z,2.02
2022-12-20T07:10:37.125Z,2.06
2022-12-20T07:13:03.460Z,2.05
2022-12-20T07:15:29.822Z,2.05
2022-12-20T07:17:56.200Z,2.03
2022-12-20T07:20:22.561Z,2.05
2022-12-20T07:22:48.907Z,2.06
2022-12-20T07:25:15.467Z,2.02
2022-12-20T07:27:41.834Z,2.06
2022-12-20T07:30:08.410Z,2.06
2022-12-20T07:32:34.764Z,2.05
2022-12-20T07:35:01.352Z,2.02
2022-12-20T07:37:27.689Z,2.06
2022-12-20T07:39:54.229Z,2.05
2022-12-20T07:42:20.560Z,2.06
2022-12-20T07:44:46.922Z,2.07
2022-12-20T07:47:13.335Z,2.06
2022-12-20T07:49:39.719Z,2.06
2022-12-20T07:52:06.073Z,2.06
2022-12-20T07:54:32.418Z,2.06
2022-12-20T07:56:58.997Z,2.06
2022-12-20T07:59:25.360Z,2.05
2022-12-20T08:01:51.771Z,2.07
2022-12-20T08:04:18.234Z,2.06
2022-12-20T08:06:44.573Z,2.07
2022-12-20T08:09:10.909Z,2.06
2022-12-20T08:11:37.227Z,2.05
2022-12-20T08:14:03.768Z,2.03
2022-12-20T08:16:30.144Z,2.05
2022-12-20T08:18:56.511Z,2.06
2022-12-20T08:21:23.078Z,2.06
2022-12-20T08:23:49.607Z,2.05
2022-12-20T08:26:15.947Z,2.05
2022-12-20T08:28:42.537Z,2.07
2022-12-20T08:31:08.915Z,2.07
2022-12-20T08:33:35.365Z,2.05
2022-12-20T08:36:02.014Z,2.03
2022-12-20T08:38:28.355Z,2.05
2022-12-20T08:40:54.678Z,2.07
2022-12-20T08:43:20.999Z,2.07
2022-12-20T08:45:48.101Z,2.06
2022-12-20T08:48:14.474Z,2.07
2022-12-20T08:50:40.814Z,2.09
2022-12-20T08:53:07.164Z,2.06
2022-12-20T08:55:33.513Z,2.07
2022-12-20T08:57:59.843Z,2.06
2022-12-20T09:00:26.411Z,2.09
2022-12-20T09:02:52.898Z,2.07
2022-12-20T09:05:19.356Z,2.07
2022-12-20T09:07:45.681Z,2.07
2022-12-20T09:10:12.018Z,2.06
2022-12-20T09:12:38.361Z,2.07
2022-12-20T09:15:04.704Z,2.09
2022-12-20T09:17:33.593Z,2.09
2022-12-20T09:19:59.918Z,2.07
2022-12-20T09:22:26.260Z,2.06
2022-12-20T09:24:52.596Z,2.09
2022-12-20T09:27:19.141Z,2.06
2022-12-20T09:29:45.500Z,2.09
2022-12-20T09:32:12.105Z,2.07
2022-12-20T09:34:38.432Z,2.07
2022-12-20T09:37:04.761Z,2.10
2022-12-20T09:39:31.112Z,2.07
2022-12-20T09:41:57.454Z,2.06
2022-12-20T09:44:23.813Z,2.09
2022-12-20T09:46:50.197Z,2.09
2022-12-20T09:49:16.784Z,2.07
2022-12-20T09:51:43.323Z,2.09
2022-12-20T09:54:09.680Z,2.06
2022-12-20T09:56:36.039Z,2.07
2022-12-20T09:59:02.396Z,2.09
2022-12-20T10:01:34.262Z,2.11
2022-12-20T10:04:04.595Z,2.07
2022-12-20T10:06:31.250Z,2.07
2022-12-20T10:08:57.608Z,2.09
2022-12-20T10:11:23.976Z,2.06
2022-12-20T10:13:50.335Z,2.11
2022-12-20T10:16:16.721Z,2.10
2022-12-20T10:18:43.150Z,2.07
2022-12-20T10:21:09.499Z,2.10
2022-12-20T10:23:36.049Z,2.11
2022-12-20T10:26:02.405Z,2.09
2022-12-20T10:28:29.165Z,2.09
2022-12-20T10:30:55.548Z,2.10
2022-12-20T10:33:21.919Z,2.07
2022-12-20T10:35:48.325Z,2.09
2022-12-20T10:38:14.701Z,2.09
2022-12-20T10:43:27.549Z,2.11
2022-12-20T10:45:54.090Z,2.07
2022-12-20T10:48:20.423Z,2.10
2022-12-20T10:50:46.758Z,2.11
2022-12-20T10:53:13.094Z,2.11
2022-12-20T10:55:39.448Z,2.10
2022-12-20T10:58:05.797Z,2.09
2022-12-20T11:00:32.825Z,2.11
2022-12-20T11:02:59.549Z,2.10
2022-12-20T11:05:26.094Z,2.10
2022-12-20T11:08:24.829Z,2.10
2022-12-20T11:10:38.871Z,2.10
2022-12-20T11:13:05.206Z,2.10
2022-12-20T11:15:34.106Z,2.11
2022-12-20T11:18:01.246Z,2.14
2022-12-20T11:20:27.603Z,2.11
2022-12-20T11:22:53.944Z,2.11
2022-12-20T11:25:20.291Z,2.11
2022-12-20T11:27:46.857Z,2.13
2022-12-20T11:30:13.198Z,2.11
2022-12-20T11:32:46.497Z,2.14
2022-12-20T11:35:14.851Z,2.16
2022-12-20T11:37:41.427Z,2.14
2022-12-20T11:40:07.777Z,2.14
2022-12-20T11:42:34.093Z,2.14
2022-12-20T11:45:08.504Z,2.13
2022-12-20T11:47:35.495Z,2.13
2022-12-20T11:50:02.057Z,2.13
2022-12-20T11:52:28.418Z,2.14
2022-12-20T11:54:54.745Z,2.13
2022-12-20T11:57:21.090Z,2.13
2022-12-20T11:59:47.407Z,2.16
2022-12-20T12:02:13.865Z,2.19
2022-12-20T12:04:40.320Z,2.14
2022-12-20T12:07:06.670Z,2.13
2022-12-20T12:09:33.013Z,2.13
2022-12-20T12:12:08.834Z,2.17
2022-12-20T12:14:35.707Z,2.14
2022-12-20T12:17:02.080Z,2.14
2022-12-20T12:19:28.461Z,2.14
2022-12-20T12:21:55.744Z,2.16
2022-12-20T12:24:22.063Z,2.16
2022-12-20T12:26:48.418Z,2.19
2022-12-20T12:29:14.774Z,2.16
2022-12-20T12:31:41.140Z,2.17
2022-12-20T12:34:07.547Z,2.14
2022-12-20T12:36:33.901Z,2.17
2022-12-20T12:39:02.323Z,2.16
2022-12-20T12:41:29.104Z,2.17
2022-12-20T12:43:55.457Z,2.20
2022-12-20T12:46:21.822Z,2.20
2022-12-20T12:48:48.260Z,2.17
2022-12-20T12:51:14.601Z,2.20
2022-12-20T12:53:40.940Z,2.17
2022-12-20T12:56:34.701Z,2.19
2022-12-20T12:58:53.552Z,2.19
2022-12-20T13:01:20.017Z,2.20
2022-12-20T13:03:46.591Z,2.20
2022-12-20T13:06:13.035Z,2.20
2022-12-20T13:08:39.364Z,2.20
2022-12-20T13:11:05.707Z,2.19
2022-12-20T13:13:32.028Z,2.23
2022-12-20T13:15:58.356Z,2.23
2022-12-20T13:18:24.722Z,2.24
2022-12-20T13:20:51.060Z,2.26
2022-12-20T13:23:17.556Z,2.26
2022-12-20T13:25:43.973Z,2.24
2022-12-20T13:28:11.627Z,2.24
2022-12-20T13:30:38.060Z,2.26
2022-12-20T13:33:04.712Z,2.24
2022-12-20T13:35:31.072Z,2.26
2022-12-20T13:37:57.429Z,2.27
2022-12-20T13:40:23.772Z,2.26
2022-12-20T13:42:50.106Z,2.27
2022-12-20T13:45:16.468Z,2.26
2022-12-20T13:47:42.803Z,2.24
2022-12-20T13:50:09.344Z,2.24
2022-12-20T13:52:35.669Z,2.24
2022-12-20T13:55:02.002Z,2.26
2022-12-20T13:57:28.346Z,2.26
2022-12-20T13:59:58.447Z,2.29
2022-12-20T14:02:28.361Z,2.29
2022-12-20T14:04:54.810Z,2.30
2022-12-20T14:07:21.171Z,2.30
2022-12-20T14:09:47.531Z,2.30
2022-12-20T14:12:17.899Z,2.34
2022-12-20T14:14:47.635Z,2.31
2022-12-20T14:17:14.029Z,2.30
2022-12-20T14:19:40.434Z,2.31
2022-12-20T14:22:06.773Z,2.33
2022-12-20T14:24:33.117Z,2.33
2022-12-20T14:26:59.432Z,2.30
2022-12-20T14:29:25.749Z,2.30
2022-12-20T14:31:52.095Z,2.33
2022-12-20T14:34:18.410Z,2.30
2022-12-20T14:36:44.733Z,2.31
2022-12-20T14:39:11.093Z,2.31
2022-12-20T14:41:37.440Z,2.30
2022-12-20T14:44:03.783Z,2.31
2022-12-20T14:46:30.152Z,2.30
2022-12-20T14:48:56.513Z,2.31
2022-12-20T14:51:22.852Z,2.30
2022-12-20T14:53:49.239Z,2.31
2022-12-20T14:56:15.577Z,2.31
2022-12-20T14:58:41.928Z,2.31
2022-12-20T15:01:08.304Z,2.33
2022-12-20T15:03:34.759Z,2.34
2022-12-20T15:06:01.207Z,2.37
2022-12-20T15:08:27.819Z,2.36
2022-12-20T15:10:54.173Z,2.36
2022-12-20T15:13:20.724Z,2.37
2022-12-20T15:15:47.110Z,2.36
2022-12-20T15:18:13.467Z,2.37
2022-12-20T15:20:39.835Z,2.36
2022-12-20T15:23:06.179Z,2.36
2022-12-20T15:25:35.386Z,2.37
2022-12-20T15:28:07.506Z,2.38
2022-12-20T15:30:33.845Z,2.37
2022-12-20T15:33:00.167Z,2.37
2022-12-20T15:35:26.515Z,2.36
2022-12-20T15:37:52.858Z,2.37
2022-12-20T15:40:19.172Z,2.36
2022-12-20T15:42:45.486Z,2.36
2022-12-20T15:45:11.835Z,2.37
2022-12-20T15:47:38.165Z,2.40
2022-12-20T15:50:04.495Z,2.37
2022-12-20T15:52:30.842Z,2.36
2022-12-20T15:54:57.170Z,2.36
2022-12-20T15:57:23.494Z,2.36
2022-12-20T16:00:05.502Z,2.37
2022-12-20T16:02:32.086Z,2.34
2022-12-20T16:04:58.956Z,2.37
2022-12-20T16:07:25.554Z,2.37
2022-12-20T16:09:51.962Z,2.37
2022-12-20T16:12:18.350Z,2.37
2022-12-20T16:14:44.724Z,2.37
2022-12-20T16:17:11.047Z,2.38
2022-12-20T16:19:37.389Z,2.38
2022-12-20T16:22:03.718Z,2.36
2022-12-20T16:24:30.050Z,2.36
2022-12-20T16:26:56.394Z,2.37
2022-12-20T16:29:22.739Z,2.38
2022-12-20T16:31:49.144Z,2.34
2022-12-20T16:34:15.555Z,2.36
2022-12-20T16:36:41.896Z,2.36
2022-12-20T16:39:08.433Z,2.38
2022-12-20T16:41:34.749Z,2.36
2022-12-20T16:44:01.298Z,2.37
2022-12-20T16:46:27.872Z,2.38
2022-12-20T16:48:54.252Z,2.38
2022-12-20T16:51:20.587Z,2.37
2022-12-20T16:54:17.526Z,2.38
2022-12-20T16:56:33.273Z,2.34
2022-12-20T16:59:18.607Z,2.38
2022-12-20T17:01:46.145Z,2.38
2022-12-20T17:04:12.650Z,2.37
2022-12-20T17:06:39.106Z,2.37
2022-12-20T17:09:05.437Z,2.37
2022-12-20T17:11:31.821Z,2.38
2022-12-20T17:13:58.195Z,2.38
2022-12-20T17:16:24.584Z,2.37
2022-12-20T17:18:50.958Z,2.36
2022-12-20T17:21:17.536Z,2.34
2022-12-20T17:23:43.901Z,2.38
2022-12-20T17:26:10.246Z,2.38
2022-12-20T17:28:36.566Z,2.37
2022-12-20T17:31:08.058Z,2.40
2022-12-20T17:33:34.732Z,2.37
2022-12-20T17:36:01.052Z,2.40
2022-12-20T17:38:27.371Z,2.40
2022-12-20T17:40:53.657Z,2.40
2022-12-20T17:43:20.231Z,2.38
2022-12-20T17:45:46.593Z,2.37
2022-12-20T17:48:12.940Z,2.38
2022-12-20T17:50:39.328Z,2.40
2022-12-20T17:53:05.682Z,2.38
2022-12-20T17:55:32.034Z,2.38
2022-12-20T17:57:58.346Z,2.36
2022-12-20T18:00:24.915Z,2.38
2022-12-20T18:02:51.344Z,2.40
2022-12-20T18:05:17.744Z,2.37
2022-12-20T18:07:44.073Z,2.37
2022-12-20T18:10:10.399Z,2.41
2022-12-20T18:12:37.734Z,2.38
2022-12-20T18:15:04.190Z,2.36
2022-12-20T18:17:30.766Z,2.36
2022-12-20T18:19:57.159Z,2.37
2022-12-20T18:22:23.524Z,2.37
2022-12-20T18:24:49.862Z,2.38
2022-12-20T18:27:16.236Z,2.37
2022-12-20T18:29:42.632Z,2.40
2022-12-20T18:32:09.004Z,2.36
2022-12-20T18:34:35.368Z,2.36
2022-12-20T18:37:01.733Z,2.36
2022-12-20T18:39:28.052Z,2.37
2022-12-20T18:41:54.634Z,2.37
2022-12-20T18:44:20.970Z,2.37
2022-12-20T18:46:47.325Z,2.37
2022-12-20T18:49:13.695Z,2.37
2022-12-20T18:51:40.041Z,2.36
2022-12-20T18:54:06.394Z,2.36
2022-12-20T18:56:32.754Z,2.36
2022-12-20T18:59:04.510Z,2.31
2022-12-20T19:01:34.411Z,2.37
2022-12-20T19:04:01.494Z,2.34
2022-12-20T19:06:27.804Z,2.37
2022-12-20T19:08:54.372Z,2.34
2022-12-20T19:11:20.712Z,2.34
2022-12-20T19:13:47.060Z,2.37
2022-12-20T19:16:13.542Z,2.36
2022-12-20T19:18:39.928Z,2.37
2022-12-20T19:21:06.275Z,2.37
2022-12-20T19:23:32.826Z,2.36
2022-12-20T19:26:04.782Z,2.36
2022-12-20T19:28:31.752Z,2.37
2022-12-20T19:30:58.170Z,2.37
2022-12-20T19:33:24.507Z,2.38
2022-12-20T19:35:55.788Z,2.36
2022-12-20T19:38:22.999Z,2.37
2022-12-20T19:40:49.363Z,2.36
2022-12-20T19:43:15.707Z,2.36
2022-12-20T19:45:42.080Z,2.36
2022-12-20T19:48:08.437Z,2.38
2022-12-20T19:50:34.766Z,2.38
2022-12-20T19:53:01.090Z,2.36
2022-12-20T19:55:27.541Z,2.36
2022-12-20T19:57:53.911Z,2.38
2022-12-20T20:00:20.225Z,2.36
2022-12-20T20:02:46.741Z,2.34
2022-12-20T20:05:15.499Z,2.36
2022-12-20T20:07:41.973Z,2.36
2022-12-20T20:10:08.316Z,2.34
2022-12-20T20:12:34.637Z,2.34
2022-12-20T20:15:00.954Z,2.37
2022-12-20T20:17:27.702Z,2.38
2022-12-20T20:19:54.022Z,2.36
2022-12-20T20:22:23.093Z,2.37
2022-12-20T20:24:49.730Z,2.36
2022-12-20T20:27:16.075Z,2.37
2022-12-20T20:29:42.420Z,2.36
2022-12-20T20:32:08.761Z,2.37
2022-12-20T20:34:35.103Z,2.37
2022-12-20T20:37:01.440Z,2.36
2022-12-20T20:39:27.788Z,2.38
2022-12-20T20:41:54.126Z,2.38
2022-12-20T20:44:20.658Z,2.38
2022-12-20T20:46:47.059Z,2.36
2022-12-20T20:49:13.460Z,2.38
2022-12-20T20:51:39.793Z,2.37
2022-12-20T20:54:06.214Z,2.37
2022-12-20T20:56:32.544Z,2.37
2022-12-20T20:59:04.954Z,2.38
2022-12-20T21:01:33.561Z,2.38
2022-12-20T21:04:00.307Z,2.36
2022-12-20T21:06:42.444Z,2.36
2022-12-20T21:09:09.129Z,2.37
2022-12-20T21:11:35.609Z,2.38
2022-12-20T21:14:02.088Z,2.36
2022-12-20T21:16:28.468Z,2.38
2022-12-20T21:18:55.100Z,2.40
2022-12-20T21:21:21.468Z,2.38
2022-12-20T21:23:47.795Z,2.38
2022-12-20T21:26:14.152Z,2.37
2022-12-20T21:28:40.712Z,2.37
2022-12-20T21:31:07.059Z,2.37
2022-12-20T21:33:33.432Z,2.37
2022-12-20T21:35:59.788Z,2.37
2022-12-20T21:38:26.125Z,2.40
2022-12-20T21:40:52.461Z,2.40
2022-12-20T21:43:18.802Z,2.40
2022-12-20T21:45:45.142Z,2.40
2022-12-20T21:48:11.693Z,2.38
2022-12-20T21:50:38.032Z,2.41
2022-12-20T21:53:04.388Z,2.38
2022-12-20T21:55:30.735Z,2.40
2022-12-20T21:57:57.080Z,2.38
2022-12-20T22:00:23.487Z,2.42
2022-12-20T22:02:50.225Z,2.42
2022-12-20T22:05:16.897Z,2.42
2022-12-20T22:07:43.250Z,2.41
2022-12-20T22:10:09.594Z,2.38
2022-12-20T22:12:35.912Z,2.41
2022-12-20T22:15:02.229Z,2.42
2022-12-20T22:17:28.571Z,2.41
2022-12-20T22:19:55.175Z,2.44
2022-12-20T22:22:21.519Z,2.42
2022-12-20T22:24:48.072Z,2.38
2022-12-20T22:27:14.430Z,2.40
2022-12-20T22:29:40.773Z,2.42
2022-12-20T22:32:07.183Z,2.40
2022-12-20T22:34:33.802Z,2.41
2022-12-20T22:37:00.145Z,2.45
2022-12-20T22:39:26.486Z,2.40
2022-12-20T22:41:52.818Z,2.42
2022-12-20T22:44:19.175Z,2.42
2022-12-20T22:46:45.538Z,2.40
2022-12-20T22:49:12.075Z,2.41
2022-12-20T22:51:38.423Z,2.42
2022-12-20T22:54:04.746Z,2.44
2022-12-20T22:56:31.093Z,2.41
2022-12-20T22:58:57.421Z,2.42
2022-12-20T23:01:23.920Z,2.44
2022-12-20T23:03:50.490Z,2.44
2022-12-20T23:06:17.144Z,2.42
2022-12-20T23:08:43.498Z,2.44
2022-12-20T23:11:09.845Z,2.44
2022-12-20T23:13:36.195Z,2.44
2022-12-20T23:16:02.728Z,2.44
2022-12-20T23:18:29.067Z,2.45
2022-12-20T23:20:55.623Z,2.45
2022-12-20T23:23:21.960Z,2.48
2022-12-20T23:25:48.277Z,2.42
2022-12-20T23:28:14.616Z,2.44
2022-12-20T23:30:40.951Z,2.45
2022-12-20T23:33:07.289Z,2.44
2022-12-20T23:35:33.640Z,2.42
2022-12-20T23:37:59.995Z,2.42
2022-12-20T23:40:26.348Z,2.47
2022-12-20T23:42:52.702Z,2.47
2022-12-20T23:45:19.058Z,2.44
2022-12-20T23:47:45.612Z,2.44
2022-12-20T23:50:11.946Z,2.44
2022-12-20T23:52:38.280Z,2.47
2022-12-20T23:55:04.600Z,2.47
2022-12-20T23:57:31.205Z,2.47
2022-12-20T23:59:57.763Z,2.47
